TimeCST,TemperatureF,Dew PointF,Humidity,Sea Level PressureIn,VisibilityMPH,Wind Direction,Wind SpeedMPH,Gust SpeedMPH,PrecipitationIn,Events,Conditions,WindDirDegrees,DateUTC
12:53 AM,53.1,48.9,86,29.99,10.0,Calm,Calm,-,N/A,,Overcast,0,2013-02-07 06:53:00
1:53 AM,53.1,48.9,86,29.98,10.0,Calm,Calm,-,N/A,,Overcast,0,2013-02-07 07:53:00
2:17 AM,53.6,48.2,82,29.98,10.0,Calm,Calm,-,N/A,,Overcast,0,2013-02-07 08:17:00
2:53 AM,53.1,48.9,86,29.97,10.0,Calm,Calm,-,N/A,,Overcast,0,2013-02-07 08:53:00
3:53 AM,51.1,48.9,92,29.96,10.0,Calm,Calm,-,N/A,,Mostly Cloudy,0,2013-02-07 09:53:00
4:53 AM,53.1,48.9,86,29.95,10.0,Calm,Calm,-,0.00,Rain,Light Rain,0,2013-02-07 10:53:00
5:53 AM,53.1,50.0,89,29.95,10.0,ENE,3.5,-,0.00,,Overcast,60,2013-02-07 11:53:00
6:15 AM,53.6,50.0,88,29.95,10.0,Calm,Calm,-,0.00,Rain,Light Rain,0,2013-02-07 12:15:00
6:42 AM,53.6,51.8,94,29.94,8.0,Calm,Calm,-,0.00,Rain,Light Rain,0,2013-02-07 12:42:00
6:53 AM,53.1,51.1,93,29.95,8.0,Calm,Calm,-,0.00,Rain,Light Rain,0,2013-02-07 12:53:00
7:26 AM,53.6,51.8,94,29.95,2.0,Calm,Calm,-,0.02,Rain,Light Rain,0,2013-02-07 13:26:00
7:36 AM,53.6,51.8,94,29.95,3.0,ENE,3.5,-,0.02,Rain,Light Rain,70,2013-02-07 13:36:00
7:53 AM,54.0,52.0,93,29.95,4.0,Calm,Calm,-,0.02,,Overcast,0,2013-02-07 13:53:00
8:16 AM,53.6,53.6,100,29.95,6.0,East,3.5,-,N/A,,Overcast,100,2013-02-07 14:16:00
8:28 AM,55.4,53.6,94,29.96,6.0,Calm,Calm,-,N/A,,Overcast,0,2013-02-07 14:28:00
8:37 AM,55.4,53.6,94,29.96,7.0,Calm,Calm,-,N/A,,Overcast,0,2013-02-07 14:37:00
8:53 AM,55.9,53.1,90,29.96,7.0,Calm,Calm,-,N/A,,Overcast,0,2013-02-07 14:53:00
9:05 AM,55.4,53.6,94,29.96,7.0,Calm,Calm,-,N/A,,Overcast,0,2013-02-07 15:05:00
9:19 AM,55.4,53.6,94,29.97,7.0,Calm,Calm,-,N/A,,Overcast,0,2013-02-07 15:19:00
9:32 AM,55.4,53.6,94,29.97,7.0,Calm,Calm,-,N/A,,Overcast,0,2013-02-07 15:32:00
9:53 AM,55.9,54.0,93,29.97,6.0,ESE,3.5,-,N/A,,Overcast,110,2013-02-07 15:53:00
10:53 AM,59.0,55.9,90,29.97,9.0,SE,3.5,-,N/A,,Overcast,130,2013-02-07 16:53:00
11:28 AM,60.8,57.2,88,29.96,10.0,SSE,4.6,-,N/A,,Overcast,150,2013-02-07 17:28:00
11:53 AM,61.0,57.0,87,29.96,10.0,Calm,Calm,-,N/A,,Overcast,0,2013-02-07 17:53:00
12:17 PM,62.6,57.2,82,29.95,10.0,Calm,Calm,-,0.01,,Overcast,0,2013-02-07 18:17:00
12:44 PM,64.4,57.2,77,29.93,10.0,Calm,Calm,-,0.01,,Overcast,0,2013-02-07 18:44:00
12:53 PM,66.0,57.0,73,29.92,10.0,Calm,Calm,-,0.01,,Mostly Cloudy,0,2013-02-07 18:53:00
1:10 PM,64.4,57.2,77,29.92,10.0,SE,4.6,-,N/A,,Mostly Cloudy,140,2013-02-07 19:10:00
1:39 PM,66.2,55.4,68,29.90,10.0,South,3.5,-,N/A,,Overcast,190,2013-02-07 19:39:00
1:53 PM,66.0,55.9,70,29.89,10.0,Variable,3.5,-,N/A,,Overcast,0,2013-02-07 19:53:00
2:53 PM,68.0,55.0,63,29.88,10.0,SSW,8.1,-,N/A,,Overcast,210,2013-02-07 20:53:00
3:53 PM,68.0,55.0,63,29.88,10.0,SW,6.9,-,N/A,,Mostly Cloudy,230,2013-02-07 21:53:00
4:53 PM,66.0,55.9,70,29.87,10.0,Calm,Calm,-,N/A,,Scattered Clouds,0,2013-02-07 22:53:00
5:53 PM,63.0,55.9,78,29.89,10.0,Calm,Calm,-,N/A,,Mostly Cloudy,0,2013-02-07 23:53:00
6:53 PM,61.0,55.9,83,29.91,10.0,West,3.5,-,N/A,,Overcast,260,2013-02-08 00:53:00
7:53 PM,63.0,55.9,78,29.90,10.0,Calm,Calm,-,N/A,,Overcast,0,2013-02-08 01:53:00
8:23 PM,62.6,55.4,77,29.91,10.0,West,4.6,-,N/A,,Overcast,280,2013-02-08 02:23:00
8:41 PM,62.6,55.4,77,29.91,10.0,West,3.5,-,N/A,,Overcast,270,2013-02-08 02:41:00
8:53 PM,63.0,55.0,75,29.91,10.0,West,3.5,-,N/A,,Overcast,270,2013-02-08 02:53:00
9:53 PM,61.0,55.0,81,29.91,10.0,Calm,Calm,-,N/A,,Mostly Cloudy,0,2013-02-08 03:53:00
10:53 PM,57.0,54.0,89,29.93,10.0,West,4.6,-,N/A,,Mostly Cloudy,260,2013-02-08 04:53:00
11:53 PM,59.0,55.0,87,29.94,10.0,West,5.8,-,N/A,,Overcast,270,2013-02-08 05:53:00